createdAt,value
2019-04-27T00:00:48.362Z,56.50
2019-04-27T00:03:23.341Z,60.73
2019-04-27T00:05:59.395Z,60.13
2019-04-27T00:08:35.051Z,64.62
2019-04-27T00:11:13.906Z,57.43
2019-04-27T00:13:43.980Z,58.63
2019-04-27T00:16:31.064Z,54.83
2019-04-27T00:19:07.373Z,58.23
2019-04-27T00:21:37.729Z,59.70
2019-04-27T00:24:06.399Z,59.80
2019-04-27T00:26:35.009Z,59.53
2019-04-27T00:29:03.983Z,69.65
2019-04-27T00:34:03.526Z,57.73
2019-04-27T00:36:35.238Z,59.80
2019-04-27T00:39:07.585Z,58.43
2019-04-27T00:41:36.566Z,63.17
2019-04-27T00:44:05.675Z,55.12
2019-04-27T00:46:34.420Z,57.23
2019-04-27T00:49:03.708Z,54.27
2019-04-27T00:51:33.262Z,60.80
2019-04-27T00:54:02.450Z,79.67
2019-04-27T00:56:47.768Z,56.75
2019-04-27T00:59:18.393Z,52.75
2019-04-27T01:02:05.417Z,56.25
2019-04-27T01:04:34.977Z,60.63
2019-04-27T01:07:03.657Z,57.83
2019-04-27T01:09:33.863Z,61.35
2019-04-27T01:12:03.587Z,55.23
2019-04-27T01:14:34.295Z,62.30
2019-04-27T01:17:03.022Z,59.17
2019-04-27T01:19:31.648Z,55.73
2019-04-27T01:22:00.335Z,54.70
2019-04-27T01:24:30.373Z,55.78
2019-04-27T01:27:08.707Z,62.62
2019-04-27T01:29:39.270Z,58.25
2019-04-27T01:32:11.162Z,63.48
2019-04-27T01:34:40.058Z,61.15
2019-04-27T01:37:09.425Z,63.78
2019-04-27T01:39:38.759Z,63.48
2019-04-27T01:42:08.919Z,67.53
2019-04-27T01:44:39.373Z,64.85
2019-04-27T01:47:10.045Z,61.98
2019-04-27T01:49:39.688Z,68.33
2019-04-27T01:52:09.598Z,72.60
2019-04-27T01:54:39.285Z,66.17
2019-04-27T01:57:10.338Z,66.62
2019-04-27T01:59:39.509Z,66.60
2019-04-27T02:02:12.759Z,67.92
2019-04-27T02:04:46.298Z,63.48
2019-04-27T02:07:15.289Z,64.15
2019-04-27T02:09:43.882Z,73.50
2019-04-27T02:12:12.510Z,62.78
2019-04-27T02:14:41.263Z,69.60
2019-04-27T02:17:09.956Z,70.67
2019-04-27T02:19:39.204Z,67.90
2019-04-27T02:22:08.655Z,68.15
2019-04-27T02:24:38.997Z,70.83
2019-04-27T02:27:08.955Z,76.47
2019-04-27T02:29:55.957Z,67.97
2019-04-27T02:32:32.758Z,69.42
2019-04-27T02:35:03.381Z,72.00
2019-04-27T02:37:32.360Z,74.70
2019-04-27T02:40:00.983Z,71.92
2019-04-27T02:42:31.326Z,69.82
2019-04-27T02:45:00.305Z,66.82
2019-04-27T02:47:29.467Z,69.60
2019-04-27T02:50:00.666Z,71.47
2019-04-27T02:52:33.747Z,69.27
2019-04-27T02:55:02.736Z,67.65
2019-04-27T02:57:31.426Z,61.58
2019-04-27T03:00:00.298Z,63.52
2019-04-27T03:02:36.785Z,74.95
2019-04-27T03:05:06.806Z,68.90
2019-04-27T03:07:35.781Z,67.55
2019-04-27T03:10:05.920Z,137.77
2019-04-27T03:12:36.537Z,92.25
2019-04-27T03:15:11.415Z,66.37
2019-04-27T03:17:44.742Z,66.60
2019-04-27T03:20:15.372Z,67.87
2019-04-27T03:22:45.987Z,63.80
2019-04-27T03:25:16.655Z,66.90
2019-04-27T03:27:56.040Z,61.08
2019-04-27T03:30:25.053Z,68.10
2019-04-27T03:32:56.777Z,61.65
2019-04-27T03:35:24.395Z,72.85
2019-04-27T03:37:53.084Z,67.35
2019-04-27T03:40:21.806Z,72.20
2019-04-27T03:42:52.138Z,69.67
2019-04-27T03:45:21.124Z,66.85
2019-04-27T03:47:50.646Z,77.37
2019-04-27T03:50:21.289Z,66.82
2019-04-27T03:53:10.442Z,71.25
2019-04-27T03:55:50.326Z,73.52
2019-04-27T03:58:23.949Z,79.95
2019-04-27T04:00:54.117Z,78.92
2019-04-27T04:03:23.096Z,70.22
2019-04-27T04:05:52.010Z,70.78
2019-04-27T04:08:21.168Z,72.78
2019-04-27T04:10:51.436Z,65.97
2019-04-27T04:13:25.048Z,74.77
2019-04-27T04:16:07.621Z,67.72
2019-04-27T04:18:53.485Z,67.17
2019-04-27T04:21:22.512Z,75.60
2019-04-27T04:23:51.124Z,75.62
2019-04-27T04:26:19.748Z,74.07
2019-04-27T04:28:50.052Z,88.90
2019-04-27T04:31:21.052Z,75.22
2019-04-27T04:33:49.754Z,72.20
2019-04-27T04:36:20.096Z,84.90
2019-04-27T04:38:50.445Z,75.45
2019-04-27T04:41:35.999Z,81.22
2019-04-27T04:44:12.540Z,90.38
2019-04-27T04:46:50.587Z,80.42
2019-04-27T04:49:19.595Z,80.10
2019-04-27T04:51:50.292Z,86.00
2019-04-27T04:54:19.842Z,81.75
2019-04-27T04:56:49.551Z,81.75
2019-04-27T04:59:20.037Z,94.28
2019-04-27T05:01:49.953Z,86.15
2019-04-27T05:04:19.462Z,87.85
2019-04-27T05:06:49.245Z,85.35
2019-04-27T05:09:19.437Z,87.67
2019-04-27T05:11:48.790Z,91.75
2019-04-27T05:14:19.795Z,82.22
2019-04-27T05:16:49.004Z,129.18
2019-04-27T05:19:18.888Z,96.22
2019-04-27T05:21:49.147Z,78.60
2019-04-27T05:24:19.272Z,73.25
2019-04-27T05:26:48.721Z,74.55
2019-04-27T05:29:19.159Z,70.75
2019-04-27T05:31:49.002Z,104.95
2019-04-27T05:34:19.678Z,76.28
2019-04-27T05:36:52.455Z,61.55
2019-04-27T05:39:24.695Z,58.85
2019-04-27T05:41:50.358Z,71.53
2019-04-27T05:44:20.880Z,60.92
2019-04-27T05:47:05.345Z,58.70
2019-04-27T05:49:41.043Z,59.00
2019-04-27T05:52:14.602Z,58.30
2019-04-27T05:54:41.920Z,59.93
2019-04-27T05:57:10.322Z,73.40
2019-04-27T05:59:39.811Z,57.35
2019-04-27T06:02:09.488Z,60.92
2019-04-27T06:04:39.055Z,61.65
2019-04-27T06:07:09.441Z,55.80
2019-04-27T06:09:39.142Z,55.70
2019-04-27T06:12:08.984Z,60.00
2019-04-27T06:14:39.322Z,61.35
2019-04-27T06:17:09.470Z,57.65
2019-04-27T06:19:39.056Z,64.30
2019-04-27T06:22:09.683Z,88.40
2019-04-27T06:24:39.692Z,59.18
2019-04-27T06:27:09.439Z,58.75
2019-04-27T06:29:40.591Z,61.05
2019-04-27T06:32:10.853Z,59.30
2019-04-27T06:34:39.687Z,58.40
2019-04-27T06:37:09.553Z,57.40
2019-04-27T06:39:38.733Z,53.63
2019-04-27T06:44:36.628Z,55.55
2019-04-27T06:47:05.315Z,54.23
2019-04-27T06:49:34.040Z,51.55
2019-04-27T06:52:02.762Z,50.87
2019-04-27T06:54:31.166Z,53.83
2019-04-27T06:56:59.786Z,51.83
2019-04-27T06:59:28.990Z,50.03
2019-04-27T07:02:00.539Z,95.75
2019-04-27T07:04:29.395Z,101.27
2019-04-27T07:07:01.278Z,47.85
2019-04-27T07:09:29.567Z,48.40
2019-04-27T07:11:59.255Z,43.95
2019-04-27T07:14:29.498Z,44.30
2019-04-27T07:16:59.227Z,42.17
2019-04-27T07:19:29.984Z,41.55
2019-04-27T07:21:59.418Z,41.48
2019-04-27T07:24:29.252Z,37.10
2019-04-27T07:26:59.663Z,42.23
2019-04-27T07:29:29.222Z,38.25
2019-04-27T07:31:59.644Z,36.60
2019-04-27T07:34:30.464Z,38.67
2019-04-27T07:36:59.870Z,38.45
2019-04-27T07:39:29.418Z,37.17
2019-04-27T07:41:58.681Z,37.55
2019-04-27T07:44:32.266Z,40.33
2019-04-27T07:47:20.883Z,57.93
2019-04-27T07:49:49.831Z,37.30
2019-04-27T07:52:20.430Z,30.80
2019-04-27T07:54:49.394Z,29.20
2019-04-27T07:57:19.774Z,27.48
2019-04-27T07:59:50.230Z,23.70
2019-04-27T08:02:19.218Z,21.07
2019-04-27T08:07:17.113Z,21.60
2019-04-27T08:09:45.843Z,20.12
2019-04-27T08:12:14.248Z,25.55
2019-04-27T08:14:42.653Z,21.87
2019-04-27T08:17:11.347Z,20.57
2019-04-27T08:19:40.222Z,23.90
2019-04-27T08:24:39.589Z,22.77
2019-04-27T08:27:10.356Z,23.60
2019-04-27T08:29:40.611Z,20.70
2019-04-27T08:32:13.699Z,21.23
2019-04-27T08:34:42.481Z,19.30
2019-04-27T08:39:39.622Z,21.43
2019-04-27T08:42:09.522Z,20.07
2019-04-27T08:44:39.680Z,18.47
2019-04-27T08:47:09.611Z,16.70
2019-04-27T08:49:39.460Z,17.03
2019-04-27T08:52:09.403Z,17.80
2019-04-27T08:54:39.459Z,17.60
2019-04-27T08:57:09.761Z,12.00
2019-04-27T08:59:39.332Z,14.73
2019-04-27T09:02:08.757Z,15.57
2019-04-27T09:04:39.267Z,12.03
2019-04-27T09:07:26.074Z,11.90
2019-04-27T09:09:56.412Z,12.47
2019-04-27T09:12:45.005Z,11.47
2019-04-27T09:17:48.837Z,12.23
2019-04-27T09:20:31.104Z,9.73
2019-04-27T09:22:59.822Z,10.57
2019-04-27T09:25:29.610Z,14.05
2019-04-27T09:27:59.746Z,10.27
2019-04-27T09:30:29.785Z,9.63
2019-04-27T09:32:58.929Z,8.17
2019-04-27T09:35:27.954Z,10.80
2019-04-27T09:37:56.604Z,7.67
2019-04-27T09:40:26.774Z,8.93
2019-04-27T09:42:57.178Z,6.43
2019-04-27T09:45:27.085Z,6.10
2019-04-27T09:47:56.388Z,7.40
2019-04-27T09:50:26.095Z,5.83
2019-04-27T09:52:55.828Z,5.63
2019-04-27T09:55:26.348Z,6.80
2019-04-27T09:57:56.725Z,8.00
2019-04-27T10:00:25.283Z,7.13
2019-04-27T10:05:21.697Z,6.58
2019-04-27T10:10:18.969Z,4.53
2019-04-27T10:12:47.655Z,3.73
2019-04-27T10:15:16.347Z,4.35
2019-04-27T10:17:44.993Z,5.07
2019-04-27T10:20:13.435Z,11.33
2019-04-27T10:22:43.648Z,4.60
2019-04-27T10:25:14.401Z,3.07
2019-04-27T10:27:45.811Z,2.70
2019-04-27T10:30:15.613Z,4.17
2019-04-27T10:32:46.069Z,5.70
2019-04-27T10:35:16.092Z,2.83
2019-04-27T10:37:44.811Z,3.53
2019-04-27T10:40:13.441Z,3.08
2019-04-27T10:42:41.841Z,4.25
2019-04-27T10:45:12.149Z,7.67
2019-04-27T10:47:40.821Z,6.60
2019-04-27T10:50:09.429Z,3.55
2019-04-27T10:52:37.818Z,3.52
2019-04-27T10:55:06.209Z,6.80
2019-04-27T11:00:02.727Z,4.03
2019-04-27T11:02:31.413Z,3.93
2019-04-27T11:07:36.406Z,3.10
2019-04-27T11:10:07.667Z,5.57
2019-04-27T11:12:36.457Z,2.80
2019-04-27T11:17:37.062Z,4.10
2019-04-27T11:20:08.739Z,4.53
2019-04-27T11:22:37.333Z,3.27
2019-04-27T11:27:35.228Z,2.83
2019-04-27T11:30:06.762Z,2.63
2019-04-27T11:32:35.459Z,4.40
2019-04-27T11:35:22.104Z,3.77
2019-04-27T11:37:52.442Z,3.77
2019-04-27T11:40:21.890Z,3.10
2019-04-27T11:42:50.510Z,3.43
2019-04-27T11:47:46.881Z,2.35
2019-04-27T11:50:16.591Z,3.60
2019-04-27T11:52:45.770Z,2.57
2019-04-27T11:55:16.240Z,5.87
2019-04-27T11:57:44.971Z,2.90
2019-04-27T12:02:45.730Z,3.00
2019-04-27T12:05:15.955Z,3.77
2019-04-27T12:07:47.406Z,4.17
2019-04-27T12:10:15.850Z,5.37
2019-04-27T12:12:46.205Z,5.07
2019-04-27T12:15:16.438Z,4.53
2019-04-27T12:17:46.078Z,2.03
2019-04-27T12:20:17.527Z,3.77
2019-04-27T12:22:45.406Z,4.17
2019-04-27T12:27:58.650Z,1.27
2019-04-27T12:30:31.891Z,3.77
2019-04-27T12:33:00.562Z,2.43
2019-04-27T12:35:29.333Z,4.87
2019-04-27T12:37:58.156Z,2.23
2019-04-27T12:40:26.974Z,2.70
2019-04-27T12:42:55.748Z,2.23
2019-04-27T12:47:52.156Z,11.43
2019-04-27T12:52:50.127Z,2.35
2019-04-27T12:55:20.366Z,5.97
2019-04-27T12:57:50.693Z,3.23
2019-04-27T13:00:20.962Z,3.33
2019-04-27T13:02:49.658Z,3.00
2019-04-27T13:07:46.065Z,2.12
2019-04-27T13:12:42.409Z,2.67
2019-04-27T13:17:38.835Z,1.77
2019-04-27T13:22:36.926Z,2.70
2019-04-27T13:25:07.289Z,2.50
2019-04-27T13:27:36.734Z,2.40
2019-04-27T13:30:07.416Z,2.13
2019-04-27T13:32:36.727Z,1.87
2019-04-27T13:35:07.088Z,3.53
2019-04-27T13:37:40.379Z,4.00
2019-04-27T13:40:10.060Z,2.43
2019-04-27T13:42:49.335Z,9.80
2019-04-27T13:45:22.316Z,17.03
2019-04-27T13:48:10.682Z,21.80
2019-04-27T13:50:40.723Z,8.75
2019-04-27T13:53:09.309Z,8.07
2019-04-27T13:55:37.934Z,8.00
2019-04-27T13:58:06.335Z,5.58
2019-04-27T14:00:37.771Z,4.47
2019-04-27T14:03:05.338Z,5.47
2019-04-27T14:05:34.018Z,5.65
2019-04-27T14:08:02.632Z,5.05
2019-04-27T14:10:31.025Z,9.10
2019-04-27T14:12:59.670Z,5.08
2019-04-27T14:15:28.891Z,2.80
2019-04-27T14:17:59.196Z,3.03
2019-04-27T14:20:28.750Z,3.23
2019-04-27T14:23:03.334Z,3.87
2019-04-27T14:25:29.527Z,3.37
2019-04-27T14:27:58.442Z,5.00
2019-04-27T14:30:27.188Z,2.97
2019-04-27T14:32:55.877Z,5.60
2019-04-27T14:35:24.490Z,6.45
2019-04-27T14:37:53.167Z,4.20
2019-04-27T14:40:21.780Z,3.55
2019-04-27T14:42:52.123Z,22.30
2019-04-27T14:45:20.590Z,5.50
2019-04-27T14:47:49.175Z,6.10
2019-04-27T14:52:48.552Z,4.45
2019-04-27T14:55:17.189Z,4.20
2019-04-27T14:57:45.879Z,6.83
2019-04-27T15:00:17.096Z,3.80
2019-04-27T15:02:45.803Z,6.10
2019-04-27T15:05:14.204Z,4.45
2019-04-27T15:07:44.465Z,3.22
2019-04-27T15:10:14.023Z,3.40
2019-04-27T15:12:43.489Z,5.77
2019-04-27T15:15:11.887Z,3.33
2019-04-27T15:17:40.313Z,4.62
2019-04-27T15:20:13.173Z,3.52
2019-04-27T15:22:42.155Z,4.93
2019-04-27T15:25:15.267Z,3.27
2019-04-27T15:27:42.968Z,3.97
2019-04-27T15:30:14.377Z,3.53
2019-04-27T15:32:53.956Z,3.37
2019-04-27T15:35:24.253Z,4.70
2019-04-27T15:37:54.518Z,4.43
2019-04-27T15:40:38.328Z,5.00
2019-04-27T15:43:09.287Z,6.37
2019-04-27T15:45:39.351Z,5.03
2019-04-27T15:48:08.459Z,7.75
2019-04-27T15:50:38.736Z,5.30
2019-04-27T15:53:12.334Z,5.67
2019-04-27T15:55:39.600Z,4.33
2019-04-27T15:58:09.754Z,6.37
2019-04-27T16:00:38.454Z,7.27
2019-04-27T16:03:08.051Z,6.35
2019-04-27T16:05:37.179Z,8.13
2019-04-27T16:08:10.542Z,4.15
2019-04-27T16:10:37.351Z,4.90
2019-04-27T16:13:07.453Z,6.70
2019-04-27T16:15:38.383Z,4.23
2019-04-27T16:18:08.793Z,3.30
2019-04-27T16:20:38.111Z,3.77
2019-04-27T16:23:08.750Z,3.23
2019-04-27T16:25:46.100Z,2.60
2019-04-27T16:28:09.677Z,3.20
2019-04-27T16:30:39.141Z,4.13
2019-04-27T16:33:08.672Z,4.47
2019-04-27T16:35:38.731Z,5.27
2019-04-27T16:38:11.806Z,3.67
2019-04-27T16:40:40.405Z,3.40
2019-04-27T16:43:09.142Z,13.20
2019-04-27T16:48:08.907Z,4.65
2019-04-27T16:50:38.988Z,3.63
2019-04-27T16:53:10.704Z,5.23
2019-04-27T16:55:38.766Z,4.37
2019-04-27T16:58:09.764Z,4.20
2019-04-27T17:00:38.798Z,4.67
2019-04-27T17:03:09.279Z,5.00
2019-04-27T17:05:38.137Z,5.90
2019-04-27T17:08:14.260Z,4.50
2019-04-27T17:10:38.995Z,4.87
2019-04-27T17:13:12.940Z,7.03
2019-04-27T17:15:58.919Z,4.93
2019-04-27T17:18:32.269Z,6.65
2019-04-27T17:21:15.536Z,9.20
2019-04-27T17:23:31.704Z,18.70
2019-04-27T17:26:09.208Z,14.77
2019-04-27T17:28:33.468Z,19.60
2019-04-27T17:31:03.361Z,12.73
2019-04-27T17:33:48.857Z,10.30
2019-04-27T17:36:17.377Z,7.23
2019-04-27T17:38:50.720Z,7.27
2019-04-27T17:41:18.375Z,5.93
2019-04-27T17:43:48.191Z,11.93
2019-04-27T17:46:16.989Z,6.67
2019-04-27T17:48:45.473Z,12.43
2019-04-27T17:51:14.249Z,33.63
2019-04-27T17:53:42.581Z,8.70
2019-04-27T17:56:11.182Z,7.62
2019-04-27T17:58:40.950Z,8.73
2019-04-27T18:01:14.201Z,8.27
2019-04-27T18:03:41.059Z,8.03
2019-04-27T18:06:09.749Z,8.30
2019-04-27T18:08:40.328Z,8.98
2019-04-27T18:11:08.887Z,8.93
2019-04-27T18:13:38.771Z,7.70
2019-04-27T18:16:09.188Z,7.67
2019-04-27T18:18:40.418Z,7.30
2019-04-27T18:21:10.049Z,7.90
2019-04-27T18:23:45.421Z,8.93
2019-04-27T18:26:17.596Z,8.90
2019-04-27T18:28:50.540Z,10.20
2019-04-27T18:31:17.873Z,9.90
2019-04-27T18:33:46.781Z,9.90
2019-04-27T18:36:15.391Z,12.43
2019-04-27T18:38:44.070Z,14.20
2019-04-27T18:41:12.749Z,10.13
2019-04-27T18:43:46.458Z,9.60
2019-04-27T18:46:14.807Z,10.75
2019-04-27T18:48:50.273Z,8.88
2019-04-27T18:51:25.123Z,10.93
2019-04-27T18:53:58.534Z,12.05
2019-04-27T18:56:24.790Z,19.50
2019-04-27T18:58:53.408Z,16.80
2019-04-27T19:01:22.117Z,10.60
2019-04-27T19:03:50.808Z,11.65
2019-04-27T19:06:19.444Z,11.15
2019-04-27T19:08:48.777Z,10.30
2019-04-27T19:11:18.738Z,12.35
2019-04-27T19:13:48.817Z,10.75
2019-04-27T19:16:18.733Z,8.90
2019-04-27T19:18:48.181Z,8.28
2019-04-27T19:21:19.838Z,8.08
2019-04-27T19:23:49.261Z,9.83
2019-04-27T19:26:34.880Z,8.07
2019-04-27T19:29:05.532Z,10.48
2019-04-27T19:31:38.418Z,8.90
2019-04-27T19:34:07.046Z,8.53
2019-04-27T19:36:35.723Z,9.10
2019-04-27T19:39:06.453Z,8.48
2019-04-27T19:41:35.355Z,6.70
2019-04-27T19:44:04.041Z,6.40
2019-04-27T19:46:32.739Z,7.05
2019-04-27T19:49:01.421Z,5.25
2019-04-27T19:51:30.123Z,22.05
2019-04-27T19:53:58.717Z,6.83
2019-04-27T19:56:28.386Z,21.42
2019-04-27T19:58:59.125Z,6.15
2019-04-27T20:01:32.308Z,4.53
2019-04-27T20:04:08.944Z,5.83
2019-04-27T20:06:38.431Z,8.33
2019-04-27T20:09:19.100Z,8.40
2019-04-27T20:11:47.942Z,4.67
2019-04-27T20:14:16.635Z,4.33
2019-04-27T20:16:45.322Z,10.85
2019-04-27T20:19:14.013Z,5.83
2019-04-27T20:21:42.681Z,4.28
2019-04-27T20:24:11.799Z,6.97
2019-04-27T20:26:40.529Z,8.53
2019-04-27T20:29:09.143Z,7.45
2019-04-27T20:31:37.730Z,5.35
2019-04-27T20:34:06.421Z,4.92
2019-04-27T20:36:35.027Z,5.30
2019-04-27T20:39:05.916Z,6.92
2019-04-27T20:41:34.945Z,7.35
2019-04-27T20:44:03.788Z,9.40
2019-04-27T20:46:32.116Z,5.70
2019-04-27T20:49:02.461Z,5.78
2019-04-27T20:51:35.666Z,5.40
2019-04-27T20:54:04.678Z,5.28
2019-04-27T20:56:33.284Z,9.48
2019-04-27T20:59:01.975Z,6.50
2019-04-27T21:01:30.590Z,7.97
2019-04-27T21:04:00.982Z,7.62
2019-04-27T21:06:37.144Z,6.92
2019-04-27T21:09:11.259Z,9.75
2019-04-27T21:11:44.362Z,6.77
2019-04-27T21:14:13.434Z,6.40
2019-04-27T21:16:41.833Z,5.85
2019-04-27T21:19:10.968Z,9.05
2019-04-27T21:21:40.740Z,8.05
2019-04-27T21:24:11.195Z,6.35
2019-04-27T21:26:41.811Z,7.12
2019-04-27T21:29:11.696Z,6.00
2019-04-27T21:31:41.772Z,8.80
2019-04-27T21:34:10.945Z,7.20
2019-04-27T21:36:40.859Z,7.10
2019-04-27T21:39:12.193Z,4.92
2019-04-27T21:41:41.339Z,7.35
2019-04-27T21:44:11.604Z,6.33
2019-04-27T21:46:41.664Z,5.95
2019-04-27T21:49:12.639Z,7.72
2019-04-27T21:52:01.241Z,8.08
2019-04-27T21:54:30.818Z,9.75
2019-04-27T21:57:02.108Z,7.87
2019-04-27T21:59:31.092Z,8.73
2019-04-27T22:02:02.335Z,9.10
2019-04-27T22:04:31.593Z,9.80
2019-04-27T22:09:29.401Z,5.80
2019-04-27T22:11:58.062Z,8.18
2019-04-27T22:14:26.736Z,8.30
2019-04-27T22:16:55.432Z,7.53
2019-04-27T22:21:52.047Z,7.03
2019-04-27T22:24:24.968Z,8.87
2019-04-27T22:26:53.888Z,10.60
2019-04-27T22:29:22.487Z,9.90
2019-04-27T22:31:51.756Z,6.33
2019-04-27T22:34:21.131Z,7.40
2019-04-27T22:36:50.110Z,10.15
2019-04-27T22:39:22.890Z,6.42
2019-04-27T22:42:12.161Z,9.80
2019-04-27T22:44:44.191Z,7.35
2019-04-27T22:47:13.285Z,10.25
2019-04-27T22:49:41.945Z,7.87
2019-04-27T22:52:11.740Z,9.18
2019-04-27T22:54:42.135Z,8.00
2019-04-27T22:57:15.578Z,8.78
2019-04-27T22:59:46.206Z,14.25
2019-04-27T23:02:22.919Z,10.63
2019-04-27T23:04:56.220Z,10.13
2019-04-27T23:07:25.200Z,11.48
2019-04-27T23:09:53.782Z,7.60
2019-04-27T23:12:23.094Z,11.18
2019-04-27T23:14:52.090Z,9.73
2019-04-27T23:17:34.365Z,10.05
2019-04-27T23:20:04.107Z,10.82
2019-04-27T23:22:33.018Z,10.15
2019-04-27T23:25:01.719Z,11.93
2019-04-27T23:27:31.829Z,12.95
2019-04-27T23:30:01.485Z,9.10
2019-04-27T23:32:32.309Z,13.50
2019-04-27T23:35:01.303Z,10.53
2019-04-27T23:37:29.987Z,10.85
2019-04-27T23:39:58.677Z,11.30
2019-04-27T23:42:27.274Z,9.43
2019-04-27T23:44:55.905Z,10.40
2019-04-27T23:47:24.528Z,11.57
2019-04-27T23:49:53.216Z,14.07
2019-04-27T23:52:23.451Z,11.55
2019-04-27T23:54:52.382Z,11.40
2019-04-27T23:57:21.784Z,11.40
2019-04-27T23:59:51.541Z,16.48
